Time;durP1;ratioP1;P1;durP2;ratioP2;P2;SDS_P1;SDS_P2;PMS_P1;PMS_P2;Temp;Humidity;BMP_temperature;BMP_pressure;BME280_temperature;BME280_humidity;BME280_pressure;Samples;Min_cycle;Max_cycle;Signal;HPM_P1;HPM_P2
2021/07/02 00:00:50;;;;;;;9.17;8.27;;;18.10;92.10;;;;;;5068157;28;20660;-48
2021/07/02 00:03:18;;;;;;;8.00;7.33;;;18.10;92.20;;;;;;5065981;28;20635;-48
2021/07/02 00:05:45;;;;;;;8.77;7.83;;;18.10;92.40;;;;;;5063389;28;20810;-48
2021/07/02 00:08:14;;;;;;;11.27;7.43;;;18.10;92.50;;;;;;5048491;28;20629;-48
2021/07/02 00:10:41;;;;;;;7.93;7.13;;;18.00;92.70;;;;;;5068957;28;20633;-48
2021/07/02 00:13:08;;;;;;;7.60;6.90;;;18.00;92.80;;;;;;5069044;28;21453;-48
2021/07/02 00:15:35;;;;;;;9.43;8.30;;;18.00;92.70;;;;;;5069062;28;20756;-48
2021/07/02 00:18:03;;;;;;;8.87;7.97;;;18.00;93.10;;;;;;5068942;28;20702;-49
2021/07/02 00:20:30;;;;;;;8.67;7.47;;;18.00;93.00;;;;;;5069529;28;20640;-47
2021/07/02 00:22:57;;;;;;;8.67;7.97;;;18.00;93.00;;;;;;5068729;28;20731;-47
2021/07/02 00:25:26;;;;;;;9.20;7.70;;;18.00;93.00;;;;;;5068119;28;20801;-48
2021/07/02 00:27:53;;;;;;;8.10;7.30;;;18.00;93.10;;;;;;5068302;28;20691;-48
2021/07/02 00:30:21;;;;;;;8.93;7.07;;;18.00;93.20;;;;;;5068726;28;20686;-48
2021/07/02 00:32:48;;;;;;;8.10;7.03;;;18.00;93.20;;;;;;5068109;28;20980;-48
2021/07/02 00:35:15;;;;;;;9.67;7.43;;;18.00;93.30;;;;;;5068360;28;20714;-49
2021/07/02 00:37:42;;;;;;;7.13;6.37;;;17.90;93.30;;;;;;5070902;28;20992;-48
2021/07/02 00:40:10;;;;;;;10.40;7.57;;;17.90;93.40;;;;;;5068476;28;20709;-49
2021/07/02 00:42:39;;;;;;;9.07;8.00;;;17.90;93.30;;;;;;5068348;28;20740;-51
2021/07/02 00:45:07;;;;;;;8.97;7.77;;;17.90;93.40;;;;;;5068644;28;20709;-49
2021/07/02 00:47:35;;;;;;;12.13;9.07;;;17.90;93.20;;;;;;5068865;28;20690;-49
2021/07/02 00:50:02;;;;;;;8.40;7.70;;;17.90;93.30;;;;;;5072331;28;20629;-49
2021/07/02 00:52:29;;;;;;;10.73;8.53;;;17.90;93.30;;;;;;5072313;28;20664;-49
2021/07/02 00:54:56;;;;;;;9.33;8.43;;;17.90;93.30;;;;;;5071688;28;20669;-49
2021/07/02 00:57:24;;;;;;;8.13;7.40;;;17.80;93.30;;;;;;5071562;28;20690;-50
2021/07/02 00:59:52;;;;;;;8.30;7.50;;;17.80;93.40;;;;;;5071710;28;21195;-49
2021/07/02 01:02:19;;;;;;;9.07;8.27;;;17.80;93.70;;;;;;5072080;28;20633;-46
2021/07/02 01:04:47;;;;;;;9.07;8.17;;;17.80;93.80;;;;;;5071844;28;20779;-48
2021/07/02 01:07:14;;;;;;;8.93;7.53;;;17.80;94.00;;;;;;5071901;28;20730;-49
2021/07/02 01:09:43;;;;;;;10.20;8.80;;;17.80;94.00;;;;;;5071308;28;20683;-49
2021/07/02 01:12:11;;;;;;;8.03;7.33;;;17.80;94.00;;;;;;5072114;28;20698;-50
2021/07/02 01:14:39;;;;;;;9.63;8.70;;;17.80;94.00;;;;;;5070358;28;21212;-50
2021/07/02 01:17:07;;;;;;;10.90;7.40;;;17.80;93.90;;;;;;5072099;28;20625;-49
2021/07/02 01:19:35;;;;;;;10.40;7.83;;;17.80;93.80;;;;;;5070765;28;20633;-49
2021/07/02 01:22:03;;;;;;;10.20;8.47;;;17.80;93.90;;;;;;5071908;28;20660;-47
2021/07/02 01:24:31;;;;;;;9.93;8.37;;;17.80;93.90;;;;;;5071944;28;20691;-49
2021/07/02 01:26:58;;;;;;;15.00;9.87;;;17.70;94.00;;;;;;5071294;28;20657;-49
2021/07/02 01:29:25;;;;;;;11.50;7.47;;;17.70;94.00;;;;;;5071762;28;21189;-49
2021/07/02 01:31:52;;;;;;;10.03;9.00;;;17.70;94.00;;;;;;5072139;28;20649;-50
2021/07/02 01:34:19;;;;;;;9.13;8.33;;;17.70;94.10;;;;;;5071277;28;20684;-49
2021/07/02 01:36:47;;;;;;;9.93;8.67;;;17.70;94.00;;;;;;5071456;28;20694;-49
2021/07/02 01:39:15;;;;;;;11.50;8.43;;;17.70;94.20;;;;;;5071545;28;20691;-49
2021/07/02 01:41:42;;;;;;;10.80;9.10;;;17.70;94.40;;;;;;5071667;28;20674;-50
2021/07/02 01:44:10;;;;;;;10.83;9.73;;;17.70;94.40;;;;;;5071298;28;21169;-48
2021/07/02 01:46:38;;;;;;;9.10;8.20;;;17.70;94.40;;;;;;5070932;28;20710;-48
2021/07/02 01:49:05;;;;;;;9.23;8.33;;;17.70;94.50;;;;;;5071254;28;20633;-49
2021/07/02 01:51:32;;;;;;;8.53;7.53;;;17.70;94.70;;;;;;5071588;28;20633;-50
2021/07/02 01:54:00;;;;;;;9.60;8.60;;;17.70;94.80;;;;;;5070828;28;20786;-50
2021/07/02 01:56:28;;;;;;;10.17;8.40;;;17.70;94.70;;;;;;5052575;28;20745;-49
2021/07/02 01:58:55;;;;;;;10.93;8.70;;;17.70;94.70;;;;;;5069742;28;20660;-49
2021/07/02 02:01:23;;;;;;;9.43;8.50;;;17.70;94.70;;;;;;5070508;28;20683;-49
2021/07/02 02:03:53;;;;;;;11.87;9.03;;;17.70;94.60;;;;;;5051439;28;21237;-49
2021/07/02 02:06:20;;;;;;;11.10;9.63;;;17.70;94.60;;;;;;5066024;28;20706;-49
2021/07/02 02:08:47;;;;;;;9.87;8.93;;;17.70;94.60;;;;;;5070949;28;20637;-49
2021/07/02 02:11:14;;;;;;;10.77;9.30;;;17.70;94.70;;;;;;5070987;28;20706;-49
2021/07/02 02:13:43;;;;;;;8.90;8.00;;;17.70;94.80;;;;;;5070774;28;21148;-49
2021/07/02 02:16:10;;;;;;;10.73;9.83;;;17.70;94.60;;;;;;5070822;28;20653;-49
2021/07/02 02:18:37;;;;;;;10.70;9.63;;;17.70;94.40;;;;;;5071094;28;20629;-49
2021/07/02 02:21:04;;;;;;;10.10;8.43;;;17.70;94.30;;;;;;5070434;28;21126;-49
2021/07/02 02:23:32;;;;;;;9.80;8.80;;;17.70;94.30;;;;;;5070727;28;20786;-49
2021/07/02 02:25:59;;;;;;;11.53;9.07;;;17.70;94.20;;;;;;5069548;28;20673;-49
2021/07/02 02:28:26;;;;;;;9.57;8.67;;;17.60;94.30;;;;;;5070588;28;20682;-48
2021/07/02 02:30:55;;;;;;;11.03;9.10;;;17.60;94.40;;;;;;5070438;28;20734;-48
2021/07/02 02:33:22;;;;;;;9.47;8.30;;;17.60;94.50;;;;;;5070615;28;20676;-48
2021/07/02 02:35:49;;;;;;;12.90;9.97;;;17.60;94.60;;;;;;5069833;28;20665;-48
2021/07/02 02:38:16;;;;;;;11.37;9.10;;;17.60;94.60;;;;;;5070690;28;20625;-48
2021/07/02 02:40:43;;;;;;;9.80;8.90;;;17.60;94.40;;;;;;5070728;28;20629;-48
2021/07/02 02:43:11;;;;;;;10.87;9.77;;;17.60;94.50;;;;;;5070084;28;20662;-49
2021/07/02 02:45:38;;;;;;;8.57;7.33;;;17.60;94.50;;;;;;5070477;28;21157;-50
2021/07/02 02:48:07;;;;;;;10.40;9.27;;;17.60;94.60;;;;;;5070690;28;20810;-50
2021/07/02 02:50:34;;;;;;;8.90;8.00;;;17.50;94.60;;;;;;5069995;28;21035;-50
2021/07/02 02:53:01;;;;;;;8.73;7.83;;;17.50;94.70;;;;;;5070734;28;20625;-50
2021/07/02 02:55:29;;;;;;;10.83;9.73;;;17.50;94.70;;;;;;5069229;28;21239;-50
2021/07/02 02:57:56;;;;;;;11.43;10.43;;;17.50;94.70;;;;;;5069836;28;20609;-49
2021/07/02 03:00:23;;;;;;;14.60;11.27;;;17.50;94.70;;;;;;5069599;28;20625;-49
2021/07/02 03:02:50;;;;;;;10.67;9.67;;;17.50;94.50;;;;;;5070204;28;20999;-50
2021/07/02 03:05:19;;;;;;;11.50;8.83;;;17.50;94.40;;;;;;5070200;28;20664;-49
2021/07/02 03:07:46;;;;;;;11.10;10.00;;;17.40;94.30;;;;;;5069442;28;20665;-49
2021/07/02 03:10:14;;;;;;;13.93;10.47;;;17.40;94.20;;;;;;5069259;28;20671;-48
2021/07/02 03:12:41;;;;;;;13.90;10.37;;;17.40;94.30;;;;;;5069543;28;20621;-49
2021/07/02 03:15:09;;;;;;;12.03;9.33;;;17.40;94.40;;;;;;5065497;28;20657;-48
2021/07/02 03:17:36;;;;;;;10.87;9.80;;;17.30;94.40;;;;;;5069830;28;20707;-49
2021/07/02 03:20:04;;;;;;;13.70;10.37;;;17.30;94.40;;;;;;5069518;28;21199;-49
2021/07/02 03:22:33;;;;;;;10.03;9.13;;;17.30;94.50;;;;;;5069218;28;20626;-48
2021/07/02 03:25:00;;;;;;;11.80;10.70;;;17.20;94.70;;;;;;5069414;28;20687;-50
2021/07/02 03:27:27;;;;;;;11.20;9.67;;;17.30;94.90;;;;;;5069326;28;20995;-50
2021/07/02 03:29:54;;;;;;;10.40;9.40;;;17.20;94.90;;;;;;5069118;28;20629;-50
2021/07/02 03:32:21;;;;;;;10.73;9.77;;;17.20;95.00;;;;;;5069010;28;20633;-49
2021/07/02 03:34:49;;;;;;;13.17;11.27;;;17.20;95.10;;;;;;5069629;28;20657;-49
2021/07/02 03:37:16;;;;;;;11.70;10.40;;;17.30;95.20;;;;;;5069363;28;20633;-49
2021/07/02 03:39:44;;;;;;;14.77;12.03;;;17.30;95.20;;;;;;5069247;28;20633;-49
2021/07/02 03:42:12;;;;;;;13.70;11.33;;;17.30;95.30;;;;;;5068918;28;20678;-49
2021/07/02 03:44:39;;;;;;;16.40;12.23;;;17.30;95.30;;;;;;5068716;28;21197;-50
2021/07/02 03:47:06;;;;;;;14.83;13.30;;;17.30;95.30;;;;;;5069109;28;20707;-49
2021/07/02 03:49:33;;;;;;;17.80;13.40;;;17.30;95.20;;;;;;5068319;28;21040;-48
2021/07/02 03:52:01;;;;;;;17.27;15.37;;;17.30;95.20;;;;;;5069053;28;20625;-49
2021/07/02 03:54:28;;;;;;;21.60;16.03;;;17.30;95.20;;;;;;5068805;28;21236;-48
2021/07/02 03:57:12;;;;;;;20.50;17.33;;;17.30;95.20;;;;;;5070155;28;20679;-48
2021/07/02 03:59:40;;;;;;;15.50;13.87;;;17.30;95.10;;;;;;5066312;28;20652;-48
2021/07/02 04:02:07;;;;;;;17.80;15.93;;;17.30;95.10;;;;;;5068461;28;20973;-49
2021/07/02 04:04:35;;;;;;;13.50;12.10;;;17.30;95.30;;;;;;5068987;28;20678;-48
2021/07/02 04:07:03;;;;;;;13.60;11.57;;;17.30;95.30;;;;;;5068649;28;20653;-48
2021/07/02 04:09:30;;;;;;;12.60;10.30;;;17.30;95.20;;;;;;5069257;28;20669;-49
2021/07/02 04:11:58;;;;;;;13.23;11.93;;;17.30;95.20;;;;;;5068626;28;20660;-49
2021/07/02 04:14:26;;;;;;;11.57;10.47;;;17.30;95.30;;;;;;5068573;28;20657;-48
2021/07/02 04:16:53;;;;;;;12.20;10.70;;;17.30;95.30;;;;;;5068832;28;21296;-48
2021/07/02 04:19:20;;;;;;;12.13;11.00;;;17.20;95.30;;;;;;5068719;28;21161;-48
2021/07/02 04:21:48;;;;;;;10.63;9.33;;;17.20;95.30;;;;;;5050818;28;20617;-48
2021/07/02 04:24:15;;;;;;;11.83;10.47;;;17.30;95.30;;;;;;5067241;28;20630;-49
2021/07/02 04:26:42;;;;;;;11.40;10.20;;;17.20;95.30;;;;;;5070439;28;20625;-51
2021/07/02 04:29:11;;;;;;;11.83;10.63;;;17.20;95.30;;;;;;5068431;28;21149;-49
2021/07/02 04:31:38;;;;;;;12.27;9.37;;;17.30;95.30;;;;;;5068454;28;20621;-50
2021/07/02 04:34:05;;;;;;;13.10;10.10;;;17.20;95.20;;;;;;5081143;28;20625;-50
2021/07/02 04:36:34;;;;;;;12.20;9.70;;;17.20;95.30;;;;;;5074540;28;21176;-50
2021/07/02 04:39:02;;;;;;;10.77;9.73;;;17.20;95.30;;;;;;5068378;28;20658;-51
2021/07/02 04:41:29;;;;;;;11.40;9.90;;;17.20;95.30;;;;;;5068274;28;20620;-49
2021/07/02 04:43:56;;;;;;;12.70;9.87;;;17.20;95.40;;;;;;5065156;28;20637;-50
2021/07/02 04:46:25;;;;;;;12.27;9.30;;;17.20;95.40;;;;;;5070911;28;20689;-49
2021/07/02 04:48:52;;;;;;;11.87;10.63;;;17.30;95.50;;;;;;5062693;28;20653;-50
2021/07/02 04:51:19;;;;;;;11.60;9.27;;;17.20;95.40;;;;;;5068616;28;20702;-50
2021/07/02 04:53:46;;;;;;;15.97;10.67;;;17.30;95.30;;;;;;5067535;28;20625;-50
2021/07/02 04:56:14;;;;;;;11.03;9.90;;;17.30;95.30;;;;;;5067842;28;21221;-49
2021/07/02 04:58:42;;;;;;;11.40;10.20;;;17.30;95.30;;;;;;5068320;28;20674;-47
2021/07/02 05:01:09;;;;;;;12.87;9.70;;;17.30;95.20;;;;;;5067340;28;20629;-49
2021/07/02 05:03:38;;;;;;;11.80;10.10;;;17.30;95.30;;;;;;5067981;28;20620;-48
2021/07/02 05:06:06;;;;;;;11.50;10.43;;;17.40;95.40;;;;;;5069106;28;20706;-50
2021/07/02 05:08:33;;;;;;;14.90;10.37;;;17.30;95.30;;;;;;5067600;28;20657;-49
2021/07/02 05:11:00;;;;;;;11.63;10.50;;;17.30;95.30;;;;;;5068205;28;21066;-50
2021/07/02 05:13:28;;;;;;;10.90;9.80;;;17.30;95.20;;;;;;5068611;28;20621;-50
2021/07/02 05:15:55;;;;;;;10.27;9.27;;;17.30;95.10;;;;;;5067831;28;20661;-48
2021/07/02 05:18:22;;;;;;;12.20;10.13;;;17.30;95.20;;;;;;5068673;28;20694;-50
2021/07/02 05:20:51;;;;;;;10.17;9.27;;;17.30;95.20;;;;;;5050580;28;20625;-49
2021/07/02 05:23:18;;;;;;;11.43;10.10;;;17.30;95.40;;;;;;5068146;28;20986;-49
2021/07/02 05:25:45;;;;;;;12.70;10.20;;;17.20;95.30;;;;;;5067538;28;20751;-49
2021/07/02 05:28:13;;;;;;;11.60;10.50;;;17.30;95.40;;;;;;5068080;28;21009;-49
2021/07/02 05:30:40;;;;;;;13.13;10.60;;;17.30;95.40;;;;;;5067847;28;20751;-49
2021/07/02 05:33:07;;;;;;;16.10;11.60;;;17.40;95.40;;;;;;5068085;28;20667;-50
2021/07/02 05:35:34;;;;;;;10.07;9.03;;;17.40;95.40;;;;;;5070898;28;21200;-49
2021/07/02 05:38:03;;;;;;;9.83;8.10;;;17.60;95.00;;;;;;5071891;28;20728;-49
2021/07/02 05:40:30;;;;;;;11.20;10.00;;;17.60;94.70;;;;;;5070989;28;20633;-48
2021/07/02 05:42:58;;;;;;;11.00;9.77;;;17.70;94.50;;;;;;5071132;28;20655;-49
2021/07/02 05:45:25;;;;;;;12.13;10.90;;;17.80;94.50;;;;;;5071249;28;20826;-49
2021/07/02 05:47:59;;;;;;;11.40;9.00;;;17.80;94.60;;;;;;5053212;28;20779;-49
2021/07/02 05:50:26;;;;;;;10.27;8.27;;;17.80;94.90;;;;;;5071202;28;20935;-49
2021/07/02 05:52:55;;;;;;;9.80;8.90;;;17.80;95.20;;;;;;5071378;28;20655;-51
2021/07/02 05:55:23;;;;;;;10.17;7.63;;;17.90;95.30;;;;;;5071073;28;20718;-50
2021/07/02 05:57:51;;;;;;;9.27;8.30;;;17.90;95.30;;;;;;5072385;28;20629;-49
2021/07/02 06:00:19;;;;;;;11.27;10.20;;;17.90;95.40;;;;;;5071176;28;20621;-51
2021/07/02 06:02:46;;;;;;;9.80;8.80;;;17.90;95.50;;;;;;5051211;28;20999;-50
2021/07/02 06:05:13;;;;;;;13.40;9.60;;;17.80;95.50;;;;;;5069033;28;20714;-51
2021/07/02 06:07:44;;;;;;;9.57;8.67;;;17.80;95.60;;;;;;5070845;28;20761;-50
2021/07/02 06:10:12;;;;;;;9.83;8.60;;;17.70;95.70;;;;;;5070772;28;20818;-50
2021/07/02 06:12:41;;;;;;;10.40;8.67;;;17.70;95.80;;;;;;5071004;28;20633;-49
2021/07/02 06:15:09;;;;;;;8.80;7.90;;;17.70;95.90;;;;;;5071049;28;20657;-49
2021/07/02 06:17:36;;;;;;;10.60;8.23;;;17.70;96.00;;;;;;5070533;28;20613;-49
2021/07/02 06:20:04;;;;;;;10.23;9.23;;;17.70;96.10;;;;;;5070809;28;20628;-49
2021/07/02 06:22:31;;;;;;;12.93;9.00;;;17.80;96.30;;;;;;5070833;28;20633;-49
2021/07/02 06:24:59;;;;;;;11.00;9.90;;;17.80;96.20;;;;;;5059413;28;20672;-49
2021/07/02 06:27:26;;;;;;;12.23;11.00;;;17.80;96.20;;;;;;5071252;28;21027;-50
2021/07/02 06:29:54;;;;;;;10.70;9.70;;;17.70;96.10;;;;;;5052346;28;20705;-50
2021/07/02 06:32:22;;;;;;;11.23;10.03;;;17.70;96.20;;;;;;5070191;28;20702;-49
2021/07/02 06:34:49;;;;;;;13.13;10.77;;;17.80;96.20;;;;;;5070883;28;20653;-49
2021/07/02 06:37:16;;;;;;;9.27;8.33;;;17.80;96.10;;;;;;5071004;28;20679;-47
2021/07/02 06:39:43;;;;;;;9.73;8.10;;;17.90;96.00;;;;;;5070188;28;21154;-49
2021/07/02 06:42:11;;;;;;;9.90;8.80;;;18.00;96.00;;;;;;5070361;28;20990;-48
2021/07/02 06:44:38;;;;;;;10.63;9.53;;;18.10;96.00;;;;;;5052189;28;21669;-50
2021/07/02 06:47:07;;;;;;;11.67;10.10;;;18.20;95.90;;;;;;5069614;28;20645;-48
2021/07/02 06:49:34;;;;;;;10.60;9.60;;;18.30;96.00;;;;;;5052574;28;20698;-51
2021/07/02 06:52:01;;;;;;;9.73;8.70;;;18.30;95.60;;;;;;5067860;28;20701;-49
2021/07/02 06:54:28;;;;;;;9.37;8.57;;;18.30;94.50;;;;;;5064488;28;20703;-49
2021/07/02 06:57:02;;;;;;;10.40;9.40;;;18.30;94.30;;;;;;5064253;28;20621;-50
2021/07/02 06:59:29;;;;;;;13.40;8.83;;;18.20;94.20;;;;;;5066785;28;21203;-49
2021/07/02 07:01:57;;;;;;;10.17;9.13;;;18.10;94.60;;;;;;5069965;28;21134;-50
2021/07/02 07:04:26;;;;;;;10.47;8.97;;;18.20;94.90;;;;;;5069929;28;20977;-50
2021/07/02 07:06:53;;;;;;;11.10;9.47;;;18.30;94.80;;;;;;5070007;28;20625;-50
2021/07/02 07:09:20;;;;;;;10.60;8.67;;;18.30;94.50;;;;;;5069215;28;20657;-50
2021/07/02 07:11:48;;;;;;;10.73;9.67;;;18.30;94.50;;;;;;5069954;28;21013;-52
2021/07/02 07:14:15;;;;;;;12.43;11.17;;;18.30;94.60;;;;;;5069649;28;20645;-48
2021/07/02 07:16:42;;;;;;;10.47;9.50;;;18.30;94.60;;;;;;5069103;28;20973;-49
2021/07/02 07:19:10;;;;;;;11.17;10.07;;;18.40;94.50;;;;;;5069302;28;20665;-49
2021/07/02 07:21:38;;;;;;;9.80;8.80;;;18.40;94.00;;;;;;5069227;28;20621;-49
2021/07/02 07:24:06;;;;;;;9.37;8.27;;;18.40;94.00;;;;;;5069875;28;20691;-49
2021/07/02 07:26:33;;;;;;;9.77;8.73;;;18.50;93.90;;;;;;5070129;28;20656;-50
2021/07/02 07:29:01;;;;;;;11.03;9.37;;;18.60;93.80;;;;;;5069850;28;20676;-50
2021/07/02 07:31:28;;;;;;;11.40;10.30;;;18.60;93.40;;;;;;5069949;28;20633;-50
2021/07/02 07:33:57;;;;;;;11.40;9.23;;;18.60;92.80;;;;;;5069994;28;20621;-48
2021/07/02 07:36:24;;;;;;;9.33;8.33;;;18.50;93.00;;;;;;5069283;28;20629;-49
2021/07/02 07:38:53;;;;;;;11.90;10.67;;;18.50;93.50;;;;;;5069552;28;21322;-48
2021/07/02 07:41:23;;;;;;;12.50;9.23;;;18.70;93.70;;;;;;5049195;28;20626;-49
2021/07/02 07:43:50;;;;;;;8.40;7.30;;;18.80;92.90;;;;;;5060653;28;20999;-49
2021/07/02 07:46:17;;;;;;;9.07;7.83;;;18.90;93.10;;;;;;5050596;28;21029;-50
2021/07/02 07:48:44;;;;;;;7.67;6.87;;;19.00;92.70;;;;;;5069214;28;21236;-49
2021/07/02 07:51:18;;;;;;;8.40;7.70;;;19.00;92.10;;;;;;5068633;28;20621;-49
2021/07/02 07:53:49;;;;;;;22.93;8.43;;;19.00;92.20;;;;;;5072098;28;20684;-48
2021/07/02 07:56:29;;;;;;;9.60;8.67;;;19.00;91.40;;;;;;5072290;28;20653;-47
2021/07/02 07:58:57;;;;;;;8.43;7.57;;;19.10;91.40;;;;;;5070106;28;20609;-49
2021/07/02 08:01:25;;;;;;;10.70;7.83;;;19.20;91.60;;;;;;5068795;28;20625;-49
2021/07/02 08:03:53;;;;;;;8.40;7.47;;;19.40;91.70;;;;;;5069241;28;20762;-49
2021/07/02 08:06:20;;;;;;;11.00;7.97;;;19.70;91.10;;;;;;5068994;28;20657;-49
2021/07/02 08:08:47;;;;;;;9.70;7.70;;;19.80;89.70;;;;;;5069211;28;20693;-50
2021/07/02 08:11:15;;;;;;;8.23;7.43;;;19.80;89.50;;;;;;5068393;28;20625;-49
2021/07/02 08:13:43;;;;;;;8.47;7.63;;;19.90;87.50;;;;;;5069582;28;20766;-50
2021/07/02 08:16:11;;;;;;;9.93;8.27;;;20.00;87.90;;;;;;5069391;28;20731;-49
2021/07/02 08:18:38;;;;;;;8.30;7.03;;;20.10;87.60;;;;;;5069398;28;20930;-48
2021/07/02 08:21:05;;;;;;;8.20;7.40;;;20.10;84.90;;;;;;5069510;28;20665;-49
2021/07/02 08:23:33;;;;;;;7.20;6.50;;;20.10;85.50;;;;;;5068078;28;20637;-50
2021/07/02 08:26:00;;;;;;;7.90;7.13;;;20.20;85.20;;;;;;5068368;28;20729;-49
2021/07/02 08:31:13;;;;;;;6.90;6.30;;;20.30;83.10;;;;;;5068881;28;20616;-49
2021/07/02 08:33:40;;;;;;;7.90;7.10;;;20.40;82.70;;;;;;5069260;28;20690;-49
2021/07/02 08:36:08;;;;;;;8.00;7.20;;;20.40;81.50;;;;;;5068695;28;20653;-48
2021/07/02 08:38:35;;;;;;;7.50;6.80;;;20.30;79.90;;;;;;5067976;28;20725;-49
2021/07/02 08:41:03;;;;;;;7.23;6.50;;;20.30;81.00;;;;;;5068306;28;20713;-49
2021/07/02 08:43:31;;;;;;;7.37;6.40;;;20.30;81.30;;;;;;5069267;28;20621;-49
2021/07/02 08:45:58;;;;;;;10.53;7.30;;;20.30;80.90;;;;;;5068590;28;21211;-48
2021/07/02 08:48:27;;;;;;;7.77;7.07;;;20.20;80.50;;;;;;5068313;28;20683;-50
2021/07/02 08:50:54;;;;;;;7.53;6.60;;;20.10;79.90;;;;;;5068792;28;20675;-49
2021/07/02 08:53:22;;;;;;;7.30;6.77;;;20.20;79.60;;;;;;5067894;28;21231;-49
2021/07/02 08:55:49;;;;;;;6.93;6.33;;;20.30;79.60;;;;;;5068407;28;20645;-49
2021/07/02 08:58:16;;;;;;;10.80;8.23;;;20.40;79.20;;;;;;5068243;28;20617;-50
2021/07/02 09:00:44;;;;;;;8.63;7.73;;;20.40;79.80;;;;;;5068448;28;20681;-49
2021/07/02 09:03:31;;;;;;;8.47;7.70;;;20.40;80.30;;;;;;5068752;28;20633;-48
2021/07/02 09:06:13;;;;;;;10.13;8.33;;;20.40;80.40;;;;;;5069075;28;21068;-51
2021/07/02 09:08:40;;;;;;;7.90;7.13;;;20.40;78.00;;;;;;5068915;28;21162;-51
2021/07/02 09:11:25;;;;;;;11.77;7.93;;;20.40;77.50;;;;;;5072682;28;21039;-50
2021/07/02 09:13:53;;;;;;;11.10;9.03;;;20.50;76.70;;;;;;5072887;28;21226;-50
2021/07/02 09:16:21;;;;;;;8.67;7.87;;;20.50;77.60;;;;;;5072440;28;20706;-51
2021/07/02 09:18:49;;;;;;;9.07;7.37;;;20.50;77.50;;;;;;5071844;28;21166;-50
2021/07/02 09:21:23;;;;;;;15.13;8.20;;;20.50;77.80;;;;;;5072100;28;20617;-49
2021/07/02 09:23:51;;;;;;;9.23;8.33;;;20.60;78.50;;;;;;5070477;28;20629;-49
2021/07/02 09:26:32;;;;;;;8.80;6.90;;;20.90;76.00;;;;;;5072125;28;20660;-49
2021/07/02 09:29:17;;;;;;;8.70;7.90;;;21.20;73.90;;;;;;5072352;28;20617;-50
2021/07/02 09:31:44;;;;;;;10.03;9.03;;;21.40;72.70;;;;;;5072454;28;20674;-49
2021/07/02 09:34:12;;;;;;;8.87;8.03;;;21.40;72.90;;;;;;5071949;28;21218;-51
2021/07/02 09:36:40;;;;;;;11.93;8.57;;;21.30;71.70;;;;;;5072844;28;20629;-51
2021/07/02 09:39:28;;;;;;;9.20;8.37;;;21.20;72.00;;;;;;5072441;28;20914;-49
2021/07/02 09:41:55;;;;;;;11.53;8.13;;;21.10;72.10;;;;;;5071977;28;20713;-49
2021/07/02 09:44:22;;;;;;;9.43;8.60;;;21.00;72.10;;;;;;5071809;28;20702;-49
2021/07/02 09:46:50;;;;;;;9.93;8.40;;;20.90;72.90;;;;;;5071793;28;20629;-50
2021/07/02 09:49:27;;;;;;;8.30;7.60;;;21.00;73.00;;;;;;5072191;28;21169;-49
2021/07/02 09:52:06;;;;;;;7.30;6.60;;;21.10;72.30;;;;;;5071961;28;21386;-49
2021/07/02 09:54:34;;;;;;;9.83;8.87;;;21.10;71.70;;;;;;5071396;28;20656;-49
2021/07/02 09:57:17;;;;;;;9.87;8.87;;;21.00;70.00;;;;;;5071006;28;20705;-47
2021/07/02 09:59:46;;;;;;;8.03;7.33;;;21.00;70.60;;;;;;5071370;28;20628;-48
2021/07/02 10:02:17;;;;;;;8.73;7.80;;;20.90;70.50;;;;;;5071092;28;20938;-50
2021/07/02 10:05:00;;;;;;;8.70;7.90;;;20.90;70.40;;;;;;5071628;28;20672;-49
2021/07/02 10:07:27;;;;;;;10.40;7.50;;;20.90;70.30;;;;;;5071443;28;20671;-49
2021/07/02 10:09:54;;;;;;;9.03;8.13;;;20.90;69.70;;;;;;5059910;28;20653;-48
2021/07/02 10:12:22;;;;;;;10.03;9.17;;;20.90;69.90;;;;;;5071834;28;21059;-49
2021/07/02 10:14:49;;;;;;;8.93;8.13;;;20.90;70.10;;;;;;5071195;28;20653;-49
2021/07/02 10:17:17;;;;;;;9.10;8.20;;;20.90;69.90;;;;;;5071735;28;20637;-49
2021/07/02 10:19:45;;;;;;;8.03;7.33;;;20.90;69.30;;;;;;5070968;28;20686;-49
2021/07/02 10:22:17;;;;;;;8.47;7.47;;;21.00;68.90;;;;;;5070393;28;20629;-50
2021/07/02 10:24:47;;;;;;;7.03;6.43;;;21.00;68.30;;;;;;5070531;28;20672;-50
2021/07/02 10:27:14;;;;;;;8.50;7.80;;;21.10;68.50;;;;;;5070515;28;20620;-50
2021/07/02 10:29:42;;;;;;;8.33;7.37;;;21.20;67.50;;;;;;5070986;28;20661;-48
2021/07/02 10:32:10;;;;;;;7.80;7.03;;;21.20;66.60;;;;;;5071252;28;20629;-49
2021/07/02 10:34:37;;;;;;;5.93;5.30;;;21.30;67.90;;;;;;5071371;28;21025;-49
2021/07/02 10:37:05;;;;;;;8.93;8.03;;;21.40;67.10;;;;;;5070829;28;20629;-50
2021/07/02 10:39:35;;;;;;;9.07;7.27;;;21.30;66.30;;;;;;5069833;28;20641;-49
2021/07/02 10:42:06;;;;;;;7.20;6.50;;;21.40;67.00;;;;;;5070912;28;20629;-50
2021/07/02 10:44:33;;;;;;;9.93;6.53;;;21.40;65.70;;;;;;5053174;28;21306;-49
2021/07/02 10:47:01;;;;;;;9.00;8.10;;;21.40;64.90;;;;;;5053564;28;20641;-49
2021/07/02 10:49:35;;;;;;;8.50;7.70;;;21.40;66.30;;;;;;5070523;28;20698;-50
2021/07/02 10:52:20;;;;;;;8.63;7.53;;;21.40;65.60;;;;;;5070387;28;20641;-49
2021/07/02 10:54:49;;;;;;;7.77;7.10;;;21.40;66.10;;;;;;5063227;28;20664;-49
2021/07/02 10:57:18;;;;;;;7.83;7.10;;;21.50;65.50;;;;;;5069616;28;20783;-49
2021/07/02 11:00:08;;;;;;;7.40;6.57;;;21.50;63.70;;;;;;5070036;28;21161;-50
2021/07/02 11:02:36;;;;;;;8.60;7.70;;;21.60;64.40;;;;;;5069892;28;20633;-50
2021/07/02 11:05:05;;;;;;;6.90;6.20;;;21.70;65.10;;;;;;5070599;28;21019;-51
2021/07/02 11:07:40;;;;;;;8.20;7.40;;;21.80;65.10;;;;;;5069763;28;20648;-50
2021/07/02 11:10:10;;;;;;;7.70;7.10;;;21.90;64.40;;;;;;5069966;28;20664;-50
2021/07/02 11:12:38;;;;;;;8.13;6.67;;;21.90;62.50;;;;;;5069521;28;20628;-50
2021/07/02 11:15:11;;;;;;;8.37;7.07;;;21.90;62.60;;;;;;5070147;28;20694;-48
2021/07/02 11:17:38;;;;;;;6.93;6.43;;;22.00;63.80;;;;;;5068832;28;20718;-50
2021/07/02 11:20:27;;;;;;;7.70;7.00;;;22.00;63.50;;;;;;5070411;28;20643;-49
2021/07/02 11:22:58;;;;;;;9.37;8.37;;;22.00;62.30;;;;;;5069640;28;20625;-49
2021/07/02 11:25:28;;;;;;;9.50;8.60;;;22.00;63.30;;;;;;5068452;28;20664;-49
2021/07/02 11:28:00;;;;;;;10.03;7.73;;;22.10;62.80;;;;;;5068256;28;20629;-48
2021/07/02 11:30:33;;;;;;;11.53;7.17;;;22.00;62.80;;;;;;5068090;28;21202;-48
2021/07/02 11:33:01;;;;;;;12.00;8.13;;;22.00;63.00;;;;;;5069287;28;20694;-48
2021/07/02 11:35:29;;;;;;;8.13;7.33;;;22.00;63.20;;;;;;5069422;28;20649;-49
2021/07/02 11:38:00;;;;;;;9.10;8.30;;;21.90;64.00;;;;;;5070354;28;20629;-49
2021/07/02 11:40:29;;;;;;;8.07;7.37;;;21.90;64.80;;;;;;5069087;28;20633;-48
2021/07/02 11:42:56;;;;;;;9.20;8.20;;;21.90;65.20;;;;;;5069822;28;21219;-48
2021/07/02 11:45:37;;;;;;;10.80;9.27;;;22.00;64.70;;;;;;5070378;28;21150;-49
2021/07/02 11:48:05;;;;;;;11.20;8.40;;;22.00;64.60;;;;;;5069959;28;21183;-50
2021/07/02 11:50:40;;;;;;;8.00;7.17;;;22.00;64.50;;;;;;5069624;28;20706;-49
2021/07/02 11:53:07;;;;;;;7.13;6.60;;;22.10;63.40;;;;;;5069657;28;20651;-48
2021/07/02 11:55:36;;;;;;;9.67;8.70;;;22.10;63.70;;;;;;5069456;28;20668;-50
2021/07/02 11:58:15;;;;;;;8.37;7.57;;;22.20;61.90;;;;;;5069582;28;20629;-49
2021/07/02 12:00:43;;;;;;;8.40;7.70;;;22.20;61.90;;;;;;5069373;28;20613;-49
2021/07/02 12:03:10;;;;;;;9.23;8.33;;;22.30;62.50;;;;;;5069664;28;20637;-49
2021/07/02 12:05:37;;;;;;;7.97;7.27;;;22.40;62.50;;;;;;5069173;28;20664;-49
2021/07/02 12:08:04;;;;;;;8.47;7.60;;;22.40;61.30;;;;;;5069298;28;20657;-50
2021/07/02 12:10:32;;;;;;;7.93;7.23;;;22.50;62.00;;;;;;5069445;28;21053;-48
2021/07/02 12:13:07;;;;;;;8.80;8.00;;;22.40;61.40;;;;;;5069308;28;20625;-49
2021/07/02 12:15:35;;;;;;;8.50;7.80;;;22.40;62.00;;;;;;5069179;28;20648;-48
2021/07/02 12:18:04;;;;;;;8.40;7.70;;;22.40;61.80;;;;;;5068963;28;20682;-48
2021/07/02 12:20:31;;;;;;;8.53;7.73;;;22.30;61.60;;;;;;5069201;28;20962;-49
2021/07/02 12:23:05;;;;;;;8.77;7.97;;;22.30;62.20;;;;;;5068963;28;20760;-49
2021/07/02 12:25:33;;;;;;;7.27;6.67;;;22.30;62.70;;;;;;5068710;28;20661;-48
2021/07/02 12:28:01;;;;;;;9.33;8.50;;;22.40;61.70;;;;;;5068970;28;20972;-50
2021/07/02 12:30:29;;;;;;;8.33;7.63;;;22.50;61.50;;;;;;5068266;28;20625;-50
2021/07/02 12:32:57;;;;;;;10.20;9.20;;;22.50;60.50;;;;;;5068516;28;20633;-49
2021/07/02 12:35:25;;;;;;;7.87;7.17;;;22.50;60.40;;;;;;5050570;28;21032;-50
2021/07/02 12:37:52;;;;;;;9.30;8.50;;;22.50;59.10;;;;;;5069171;28;20631;-50
2021/07/02 12:40:19;;;;;;;8.40;7.57;;;22.40;59.10;;;;;;5063056;28;20634;-49
2021/07/02 12:42:47;;;;;;;8.60;7.67;;;22.40;59.70;;;;;;5049029;28;20695;-49
2021/07/02 12:45:15;;;;;;;7.70;6.90;;;22.40;59.40;;;;;;5051961;28;20964;-50
2021/07/02 12:47:44;;;;;;;8.37;7.67;;;22.50;60.10;;;;;;5053300;28;20722;-50
2021/07/02 12:50:12;;;;;;;9.43;8.53;;;22.50;59.40;;;;;;5070821;28;21306;-50